sensor_id;sensor_type;location;lat;lon;timestamp;temperature;humidity
12769;DHT22;6448;48.916;8.990;2022-12-29T00:00:19;14.00;53.40
12769;DHT22;6448;48.916;8.990;2022-12-29T00:01:20;13.90;53.40
12769;DHT22;6448;48.916;8.990;2022-12-29T00:02:22;13.90;53.40
12769;DHT22;6448;48.916;8.990;2022-12-29T00:03:23;13.80;53.30
12769;DHT22;6448;48.916;8.990;2022-12-29T00:04:24;13.90;53.30
12769;DHT22;6448;48.916;8.990;2022-12-29T00:05:26;13.80;53.20
12769;DHT22;6448;48.916;8.990;2022-12-29T00:06:27;13.90;53.20
12769;DHT22;6448;48.916;8.990;2022-12-29T00:07:29;14.00;53.30
12769;DHT22;6448;48.916;8.990;2022-12-29T00:08:29;13.90;53.30
12769;DHT22;6448;48.916;8.990;2022-12-29T00:09:40;13.90;53.30
12769;DHT22;6448;48.916;8.990;2022-12-29T00:10:42;13.90;53.30
12769;DHT22;6448;48.916;8.990;2022-12-29T00:11:43;13.90;53.40
12769;DHT22;6448;48.916;8.990;2022-12-29T00:12:46;13.90;53.40
12769;DHT22;6448;48.916;8.990;2022-12-29T00:14:06;14.10;53.50
12769;DHT22;6448;48.916;8.990;2022-12-29T00:15:25;13.90;53.40
12769;DHT22;6448;48.916;8.990;2022-12-29T00:16:41;13.90;53.50
12769;DHT22;6448;48.916;8.990;2022-12-29T00:17:43;13.90;53.50
12769;DHT22;6448;48.916;8.990;2022-12-29T00:18:44;13.90;53.50
12769;DHT22;6448;48.916;8.990;2022-12-29T00:19:45;13.90;53.50
12769;DHT22;6448;48.916;8.990;2022-12-29T00:21:04;13.90;53.50
12769;DHT22;6448;48.916;8.990;2022-12-29T00:22:24;14.00;53.50
12769;DHT22;6448;48.916;8.990;2022-12-29T00:23:43;14.00;53.50
12769;DHT22;6448;48.916;8.990;2022-12-29T00:25:03;13.90;53.40
12769;DHT22;6448;48.916;8.990;2022-12-29T00:26:22;14.00;53.50
12769;DHT22;6448;48.916;8.990;2022-12-29T00:27:41;14.00;53.50
12769;DHT22;6448;48.916;8.990;2022-12-29T00:29:02;14.00;53.40
12769;DHT22;6448;48.916;8.990;2022-12-29T00:30:23;14.00;53.40
12769;DHT22;6448;48.916;8.990;2022-12-29T00:31:43;14.00;53.40
12769;DHT22;6448;48.916;8.990;2022-12-29T00:33:09;14.00;53.30
12769;DHT22;6448;48.916;8.990;2022-12-29T00:34:29;14.00;53.30
12769;DHT22;6448;48.916;8.990;2022-12-29T00:35:53;14.00;53.20
12769;DHT22;6448;48.916;8.990;2022-12-29T00:36:56;14.00;53.20
12769;DHT22;6448;48.916;8.990;2022-12-29T00:38:00;14.00;53.20
12769;DHT22;6448;48.916;8.990;2022-12-29T00:39:20;14.20;53.30
12769;DHT22;6448;48.916;8.990;2022-12-29T00:40:40;14.10;53.10
12769;DHT22;6448;48.916;8.990;2022-12-29T00:42:03;14.10;53.10
12769;DHT22;6448;48.916;8.990;2022-12-29T00:43:34;14.10;53.10
12769;DHT22;6448;48.916;8.990;2022-12-29T00:44:55;14.10;53.10
12769;DHT22;6448;48.916;8.990;2022-12-29T00:45:56;14.10;53.10
12769;DHT22;6448;48.916;8.990;2022-12-29T00:46:57;14.20;53.20
12769;DHT22;6448;48.916;8.990;2022-12-29T00:48:03;14.20;53.10
12769;DHT22;6448;48.916;8.990;2022-12-29T00:49:04;14.20;53.10
12769;DHT22;6448;48.916;8.990;2022-12-29T00:50:23;14.10;53.00
12769;DHT22;6448;48.916;8.990;2022-12-29T00:51:25;14.30;53.00
12769;DHT22;6448;48.916;8.990;2022-12-29T00:52:26;14.30;52.90
12769;DHT22;6448;48.916;8.990;2022-12-29T00:53:28;14.20;52.70
12769;DHT22;6448;48.916;8.990;2022-12-29T00:54:30;14.40;52.80
12769;DHT22;6448;48.916;8.990;2022-12-29T00:55:36;14.30;52.70
12769;DHT22;6448;48.916;8.990;2022-12-29T00:56:37;14.60;52.90
12769;DHT22;6448;48.916;8.990;2022-12-29T00:57:39;14.30;52.70
12769;DHT22;6448;48.916;8.990;2022-12-29T00:58:40;14.40;52.70
12769;DHT22;6448;48.916;8.990;2022-12-29T00:59:42;14.40;52.70
12769;DHT22;6448;48.916;8.990;2022-12-29T01:00:47;14.30;52.70
12769;DHT22;6448;48.916;8.990;2022-12-29T01:01:47;14.40;52.60
12769;DHT22;6448;48.916;8.990;2022-12-29T01:02:49;14.50;52.50
12769;DHT22;6448;48.916;8.990;2022-12-29T01:03:51;14.40;52.50
12769;DHT22;6448;48.916;8.990;2022-12-29T01:04:53;14.40;52.40
12769;DHT22;6448;48.916;8.990;2022-12-29T01:05:55;14.50;52.50
12769;DHT22;6448;48.916;8.990;2022-12-29T01:06:56;14.50;52.50
12769;DHT22;6448;48.916;8.990;2022-12-29T01:07:58;14.40;52.30
12769;DHT22;6448;48.916;8.990;2022-12-29T01:08:58;14.50;52.40
12769;DHT22;6448;48.916;8.990;2022-12-29T01:10:18;14.50;52.40
12769;DHT22;6448;48.916;8.990;2022-12-29T01:11:19;14.50;52.30
12769;DHT22;6448;48.916;8.990;2022-12-29T01:12:20;14.50;52.30
12769;DHT22;6448;48.916;8.990;2022-12-29T01:13:40;14.50;52.40
12769;DHT22;6448;48.916;8.990;2022-12-29T01:14:45;14.50;52.30
12769;DHT22;6448;48.916;8.990;2022-12-29T01:15:50;14.70;52.50
12769;DHT22;6448;48.916;8.990;2022-12-29T01:16:53;14.50;52.40
12769;DHT22;6448;48.916;8.990;2022-12-29T01:17:53;14.50;52.40
12769;DHT22;6448;48.916;8.990;2022-12-29T01:18:55;14.60;52.40
12769;DHT22;6448;48.916;8.990;2022-12-29T01:19:56;14.60;52.50
12769;DHT22;6448;48.916;8.990;2022-12-29T01:20:58;14.50;52.40
12769;DHT22;6448;48.916;8.990;2022-12-29T01:22:00;14.60;52.50
12769;DHT22;6448;48.916;8.990;2022-12-29T01:23:02;14.70;52.60
12769;DHT22;6448;48.916;8.990;2022-12-29T01:24:03;14.60;52.60
12769;DHT22;6448;48.916;8.990;2022-12-29T01:25:06;14.60;52.60
12769;DHT22;6448;48.916;8.990;2022-12-29T01:26:10;14.60;52.70
12769;DHT22;6448;48.916;8.990;2022-12-29T01:27:12;14.70;52.80
12769;DHT22;6448;48.916;8.990;2022-12-29T01:28:13;14.60;52.80
12769;DHT22;6448;48.916;8.990;2022-12-29T01:29:14;14.60;52.90
12769;DHT22;6448;48.916;8.990;2022-12-29T01:30:15;14.60;52.90
12769;DHT22;6448;48.916;8.990;2022-12-29T01:31:18;14.60;53.00
12769;DHT22;6448;48.916;8.990;2022-12-29T01:32:19;14.60;53.00
12769;DHT22;6448;48.916;8.990;2022-12-29T01:33:21;14.60;53.00
12769;DHT22;6448;48.916;8.990;2022-12-29T01:34:22;14.60;53.10
12769;DHT22;6448;48.916;8.990;2022-12-29T01:35:24;14.60;53.00
12769;DHT22;6448;48.916;8.990;2022-12-29T01:36:24;14.60;53.10
12769;DHT22;6448;48.916;8.990;2022-12-29T01:37:26;14.60;53.20
12769;DHT22;6448;48.916;8.990;2022-12-29T01:38:27;14.60;53.20
12769;DHT22;6448;48.916;8.990;2022-12-29T01:39:29;14.60;53.20
12769;DHT22;6448;48.916;8.990;2022-12-29T01:40:30;14.60;53.30
12769;DHT22;6448;48.916;8.990;2022-12-29T01:41:31;14.60;53.40
12769;DHT22;6448;48.916;8.990;2022-12-29T01:42:35;14.60;53.40
12769;DHT22;6448;48.916;8.990;2022-12-29T01:43:40;14.60;53.50
12769;DHT22;6448;48.916;8.990;2022-12-29T01:44:51;14.80;53.80
12769;DHT22;6448;48.916;8.990;2022-12-29T01:45:53;14.70;53.80
12769;DHT22;6448;48.916;8.990;2022-12-29T01:46:56;14.70;53.90
12769;DHT22;6448;48.916;8.990;2022-12-29T01:48:00;14.70;53.80
12769;DHT22;6448;48.916;8.990;2022-12-29T01:49:05;14.70;53.80
12769;DHT22;6448;48.916;8.990;2022-12-29T01:50:10;14.60;53.70
12769;DHT22;6448;48.916;8.990;2022-12-29T01:51:12;14.70;53.70
12769;DHT22;6448;48.916;8.990;2022-12-29T01:52:13;14.60;53.70
12769;DHT22;6448;48.916;8.990;2022-12-29T01:53:19;14.70;53.80
12769;DHT22;6448;48.916;8.990;2022-12-29T01:54:26;14.50;53.70
12769;DHT22;6448;48.916;8.990;2022-12-29T01:55:31;14.70;53.80
12769;DHT22;6448;48.916;8.990;2022-12-29T01:56:33;14.60;53.70
12769;DHT22;6448;48.916;8.990;2022-12-29T01:57:39;14.60;53.50
12769;DHT22;6448;48.916;8.990;2022-12-29T01:58:45;14.60;53.60
12769;DHT22;6448;48.916;8.990;2022-12-29T01:59:51;14.70;53.70
12769;DHT22;6448;48.916;8.990;2022-12-29T02:00:54;14.60;53.60
12769;DHT22;6448;48.916;8.990;2022-12-29T02:01:57;14.60;53.50
12769;DHT22;6448;48.916;8.990;2022-12-29T02:02:58;14.60;53.50
12769;DHT22;6448;48.916;8.990;2022-12-29T02:04:00;14.60;53.50
12769;DHT22;6448;48.916;8.990;2022-12-29T02:05:07;14.80;53.60
12769;DHT22;6448;48.916;8.990;2022-12-29T02:06:12;14.60;53.60
12769;DHT22;6448;48.916;8.990;2022-12-29T02:07:19;14.60;53.50
12769;DHT22;6448;48.916;8.990;2022-12-29T02:08:22;14.60;53.50
12769;DHT22;6448;48.916;8.990;2022-12-29T02:09:25;14.70;53.50
12769;DHT22;6448;48.916;8.990;2022-12-29T02:10:30;14.80;53.50
12769;DHT22;6448;48.916;8.990;2022-12-29T02:11:31;14.70;53.60
12769;DHT22;6448;48.916;8.990;2022-12-29T02:12:33;14.60;53.50
12769;DHT22;6448;48.916;8.990;2022-12-29T02:13:34;14.60;53.40
12769;DHT22;6448;48.916;8.990;2022-12-29T02:14:36;14.60;53.30
12769;DHT22;6448;48.916;8.990;2022-12-29T02:15:48;14.60;53.20
12769;DHT22;6448;48.916;8.990;2022-12-29T02:17:04;14.80;53.30
12769;DHT22;6448;48.916;8.990;2022-12-29T02:18:25;14.60;53.20
12769;DHT22;6448;48.916;8.990;2022-12-29T02:19:59;14.60;53.40
12769;DHT22;6448;48.916;8.990;2022-12-29T02:21:36;14.60;53.50
12769;DHT22;6448;48.916;8.990;2022-12-29T02:22:52;14.60;53.50
12769;DHT22;6448;48.916;8.990;2022-12-29T02:24:27;14.60;53.50
12769;DHT22;6448;48.916;8.990;2022-12-29T02:27:25;14.60;53.30
12769;DHT22;6448;48.916;8.990;2022-12-29T02:28:46;14.90;53.40
12769;DHT22;6448;48.916;8.990;2022-12-29T02:30:09;14.60;53.20
12769;DHT22;6448;48.916;8.990;2022-12-29T02:31:17;14.60;53.20
12769;DHT22;6448;48.916;8.990;2022-12-29T02:32:27;14.60;53.20
12769;DHT22;6448;48.916;8.990;2022-12-29T02:33:39;14.80;53.40
12769;DHT22;6448;48.916;8.990;2022-12-29T02:34:49;14.60;53.40
12769;DHT22;6448;48.916;8.990;2022-12-29T02:35:58;14.70;53.50
12769;DHT22;6448;48.916;8.990;2022-12-29T02:37:05;14.60;53.40
12769;DHT22;6448;48.916;8.990;2022-12-29T02:38:15;14.60;53.40
12769;DHT22;6448;48.916;8.990;2022-12-29T02:39:29;14.60;53.40
12769;DHT22;6448;48.916;8.990;2022-12-29T02:40:38;14.70;53.30
12769;DHT22;6448;48.916;8.990;2022-12-29T02:41:48;14.80;53.40
12769;DHT22;6448;48.916;8.990;2022-12-29T02:43:01;14.60;53.30
12769;DHT22;6448;48.916;8.990;2022-12-29T02:44:11;14.60;53.30
12769;DHT22;6448;48.916;8.990;2022-12-29T02:45:18;14.60;53.30
12769;DHT22;6448;48.916;8.990;2022-12-29T02:46:30;14.90;53.50
12769;DHT22;6448;48.916;8.990;2022-12-29T02:47:37;14.70;53.30
12769;DHT22;6448;48.916;8.990;2022-12-29T02:48:45;14.50;53.20
12769;DHT22;6448;48.916;8.990;2022-12-29T02:49:51;14.80;53.30
12769;DHT22;6448;48.916;8.990;2022-12-29T02:51:00;14.60;53.20
12769;DHT22;6448;48.916;8.990;2022-12-29T02:52:04;14.70;53.20
12769;DHT22;6448;48.916;8.990;2022-12-29T02:53:11;14.60;52.90
12769;DHT22;6448;48.916;8.990;2022-12-29T02:54:16;14.70;52.90
12769;DHT22;6448;48.916;8.990;2022-12-29T02:55:37;14.70;52.80
12769;DHT22;6448;48.916;8.990;2022-12-29T02:56:41;14.70;52.90
12769;DHT22;6448;48.916;8.990;2022-12-29T02:57:42;14.70;53.00
12769;DHT22;6448;48.916;8.990;2022-12-29T02:58:43;14.70;52.90
12769;DHT22;6448;48.916;8.990;2022-12-29T02:59:45;14.90;53.00
12769;DHT22;6448;48.916;8.990;2022-12-29T03:01:00;14.50;52.90
12769;DHT22;6448;48.916;8.990;2022-12-29T03:02:18;14.80;53.00
12769;DHT22;6448;48.916;8.990;2022-12-29T03:03:35;14.90;53.10
12769;DHT22;6448;48.916;8.990;2022-12-29T03:04:50;14.70;53.00
12769;DHT22;6448;48.916;8.990;2022-12-29T03:06:05;14.80;53.10
12769;DHT22;6448;48.916;8.990;2022-12-29T03:07:16;14.70;53.00
12769;DHT22;6448;48.916;8.990;2022-12-29T03:08:26;14.70;53.00
12769;DHT22;6448;48.916;8.990;2022-12-29T03:09:37;14.80;52.90
12769;DHT22;6448;48.916;8.990;2022-12-29T03:10:51;14.80;53.00
12769;DHT22;6448;48.916;8.990;2022-12-29T03:12:00;14.80;52.80
12769;DHT22;6448;48.916;8.990;2022-12-29T03:13:14;14.90;52.80
12769;DHT22;6448;48.916;8.990;2022-12-29T03:14:44;14.80;52.60
12769;DHT22;6448;48.916;8.990;2022-12-29T03:16:13;14.80;52.60
12769;DHT22;6448;48.916;8.990;2022-12-29T03:17:23;14.90;52.60
12769;DHT22;6448;48.916;8.990;2022-12-29T03:18:37;14.90;52.80
12769;DHT22;6448;48.916;8.990;2022-12-29T03:19:44;14.90;52.50
12769;DHT22;6448;48.916;8.990;2022-12-29T03:20:52;14.90;52.50
12769;DHT22;6448;48.916;8.990;2022-12-29T03:21:59;15.00;52.40
12769;DHT22;6448;48.916;8.990;2022-12-29T03:23:28;15.00;52.30
12769;DHT22;6448;48.916;8.990;2022-12-29T03:24:34;15.10;52.30
12769;DHT22;6448;48.916;8.990;2022-12-29T03:25:38;15.10;52.30
12769;DHT22;6448;48.916;8.990;2022-12-29T03:26:45;15.30;53.00
12769;DHT22;6448;48.916;8.990;2022-12-29T03:27:50;15.20;52.30
12769;DHT22;6448;48.916;8.990;2022-12-29T03:28:54;15.20;52.30
12769;DHT22;6448;48.916;8.990;2022-12-29T03:30:02;15.30;52.20
12769;DHT22;6448;48.916;8.990;2022-12-29T03:31:07;15.20;52.00
12769;DHT22;6448;48.916;8.990;2022-12-29T03:32:09;15.30;51.90
12769;DHT22;6448;48.916;8.990;2022-12-29T03:33:17;15.40;51.90
12769;DHT22;6448;48.916;8.990;2022-12-29T03:34:20;15.40;51.80
12769;DHT22;6448;48.916;8.990;2022-12-29T03:35:25;15.60;51.70
12769;DHT22;6448;48.916;8.990;2022-12-29T03:36:34;15.40;51.50
12769;DHT22;6448;48.916;8.990;2022-12-29T03:37:42;15.50;51.50
12769;DHT22;6448;48.916;8.990;2022-12-29T03:38:46;15.40;51.30
12769;DHT22;6448;48.916;8.990;2022-12-29T03:39:49;15.40;51.30
12769;DHT22;6448;48.916;8.990;2022-12-29T03:40:52;15.40;51.20
12769;DHT22;6448;48.916;8.990;2022-12-29T03:42:01;15.50;51.20
12769;DHT22;6448;48.916;8.990;2022-12-29T03:43:03;15.50;51.10
12769;DHT22;6448;48.916;8.990;2022-12-29T03:44:08;15.60;51.00
12769;DHT22;6448;48.916;8.990;2022-12-29T03:45:10;15.50;50.90
12769;DHT22;6448;48.916;8.990;2022-12-29T03:46:13;15.50;50.80
12769;DHT22;6448;48.916;8.990;2022-12-29T03:47:15;15.70;50.80
12769;DHT22;6448;48.916;8.990;2022-12-29T03:48:20;15.60;50.70
12769;DHT22;6448;48.916;8.990;2022-12-29T03:49:23;15.60;50.70
12769;DHT22;6448;48.916;8.990;2022-12-29T03:50:25;15.60;50.70
12769;DHT22;6448;48.916;8.990;2022-12-29T03:51:27;15.60;50.60
12769;DHT22;6448;48.916;8.990;2022-12-29T03:52:29;15.80;50.60
12769;DHT22;6448;48.916;8.990;2022-12-29T03:53:30;15.60;50.50
12769;DHT22;6448;48.916;8.990;2022-12-29T03:54:32;15.70;50.40
12769;DHT22;6448;48.916;8.990;2022-12-29T03:55:33;15.80;50.30
12769;DHT22;6448;48.916;8.990;2022-12-29T03:56:35;15.90;50.40
12769;DHT22;6448;48.916;8.990;2022-12-29T03:57:37;15.70;50.20
12769;DHT22;6448;48.916;8.990;2022-12-29T03:58:41;15.70;50.20
12769;DHT22;6448;48.916;8.990;2022-12-29T03:59:46;15.80;50.20
12769;DHT22;6448;48.916;8.990;2022-12-29T04:00:47;15.90;50.30
12769;DHT22;6448;48.916;8.990;2022-12-29T04:01:48;15.80;50.20
12769;DHT22;6448;48.916;8.990;2022-12-29T04:02:51;15.90;50.10
12769;DHT22;6448;48.916;8.990;2022-12-29T04:03:56;15.90;50.10
12769;DHT22;6448;48.916;8.990;2022-12-29T04:04:58;16.00;50.10
12769;DHT22;6448;48.916;8.990;2022-12-29T04:05:59;15.90;50.10
12769;DHT22;6448;48.916;8.990;2022-12-29T04:07:03;15.80;50.00
12769;DHT22;6448;48.916;8.990;2022-12-29T04:08:05;15.80;50.00
12769;DHT22;6448;48.916;8.990;2022-12-29T04:09:09;15.80;50.10
12769;DHT22;6448;48.916;8.990;2022-12-29T04:10:15;15.80;50.10
12769;DHT22;6448;48.916;8.990;2022-12-29T04:11:18;15.90;50.20
12769;DHT22;6448;48.916;8.990;2022-12-29T04:12:19;15.90;50.10
12769;DHT22;6448;48.916;8.990;2022-12-29T04:13:21;15.90;50.10
12769;DHT22;6448;48.916;8.990;2022-12-29T04:14:22;16.10;50.20
12769;DHT22;6448;48.916;8.990;2022-12-29T04:15:24;16.00;50.20
12769;DHT22;6448;48.916;8.990;2022-12-29T04:16:26;15.90;50.10
12769;DHT22;6448;48.916;8.990;2022-12-29T04:17:28;16.00;50.10
12769;DHT22;6448;48.916;8.990;2022-12-29T04:18:29;15.80;50.10
12769;DHT22;6448;48.916;8.990;2022-12-29T04:19:32;15.90;50.20
12769;DHT22;6448;48.916;8.990;2022-12-29T04:20:33;15.80;50.10
12769;DHT22;6448;48.916;8.990;2022-12-29T04:21:52;16.00;50.30
12769;DHT22;6448;48.916;8.990;2022-12-29T04:22:59;15.90;50.20
12769;DHT22;6448;48.916;8.990;2022-12-29T04:24:00;15.90;50.20
12769;DHT22;6448;48.916;8.990;2022-12-29T04:25:02;15.90;50.30
12769;DHT22;6448;48.916;8.990;2022-12-29T04:26:05;15.90;50.30
12769;DHT22;6448;48.916;8.990;2022-12-29T04:27:09;15.90;50.30
12769;DHT22;6448;48.916;8.990;2022-12-29T04:28:28;15.70;50.20
12769;DHT22;6448;48.916;8.990;2022-12-29T04:29:45;15.90;50.30
12769;DHT22;6448;48.916;8.990;2022-12-29T04:31:05;15.90;50.30
12769;DHT22;6448;48.916;8.990;2022-12-29T04:32:10;15.90;50.30
12769;DHT22;6448;48.916;8.990;2022-12-29T04:33:16;15.80;50.20
12769;DHT22;6448;48.916;8.990;2022-12-29T04:34:18;15.90;50.30
12769;DHT22;6448;48.916;8.990;2022-12-29T04:35:22;15.80;50.20
12769;DHT22;6448;48.916;8.990;2022-12-29T04:36:24;15.90;50.20
12769;DHT22;6448;48.916;8.990;2022-12-29T04:37:26;15.90;50.20
12769;DHT22;6448;48.916;8.990;2022-12-29T04:38:28;15.80;50.20
12769;DHT22;6448;48.916;8.990;2022-12-29T04:39:29;15.80;50.20
12769;DHT22;6448;48.916;8.990;2022-12-29T04:40:30;16.00;50.30
12769;DHT22;6448;48.916;8.990;2022-12-29T04:41:32;16.00;50.30
12769;DHT22;6448;48.916;8.990;2022-12-29T04:42:33;15.90;50.30
12769;DHT22;6448;48.916;8.990;2022-12-29T04:43:35;15.80;50.30
12769;DHT22;6448;48.916;8.990;2022-12-29T04:44:50;15.80;50.90
12769;DHT22;6448;48.916;8.990;2022-12-29T04:46:27;15.90;50.40
12769;DHT22;6448;48.916;8.990;2022-12-29T04:47:52;15.60;50.30
12769;DHT22;6448;48.916;8.990;2022-12-29T04:49:08;15.70;50.40
12769;DHT22;6448;48.916;8.990;2022-12-29T04:50:41;15.80;50.60
12769;DHT22;6448;48.916;8.990;2022-12-29T04:51:52;15.80;50.60
12769;DHT22;6448;48.916;8.990;2022-12-29T04:52:54;15.70;50.50
12769;DHT22;6448;48.916;8.990;2022-12-29T04:53:55;15.70;50.60
12769;DHT22;6448;48.916;8.990;2022-12-29T04:54:58;15.70;50.60
12769;DHT22;6448;48.916;8.990;2022-12-29T04:56:01;15.70;50.60
12769;DHT22;6448;48.916;8.990;2022-12-29T04:57:02;15.60;50.70
12769;DHT22;6448;48.916;8.990;2022-12-29T04:58:04;15.70;50.60
12769;DHT22;6448;48.916;8.990;2022-12-29T04:59:07;15.70;50.60
12769;DHT22;6448;48.916;8.990;2022-12-29T05:00:10;15.70;50.70
12769;DHT22;6448;48.916;8.990;2022-12-29T05:01:11;15.70;50.70
12769;DHT22;6448;48.916;8.990;2022-12-29T05:02:13;15.70;50.70
12769;DHT22;6448;48.916;8.990;2022-12-29T05:03:14;15.70;50.70
12769;DHT22;6448;48.916;8.990;2022-12-29T05:04:17;15.70;50.70
12769;DHT22;6448;48.916;8.990;2022-12-29T05:05:18;15.80;50.70
12769;DHT22;6448;48.916;8.990;2022-12-29T05:06:24;15.70;50.70
12769;DHT22;6448;48.916;8.990;2022-12-29T05:07:25;15.70;50.70
12769;DHT22;6448;48.916;8.990;2022-12-29T05:08:28;15.70;50.80
12769;DHT22;6448;48.916;8.990;2022-12-29T05:09:32;15.90;50.90
12769;DHT22;6448;48.916;8.990;2022-12-29T05:10:34;15.70;50.80
12769;DHT22;6448;48.916;8.990;2022-12-29T05:11:40;15.70;50.80
12769;DHT22;6448;48.916;8.990;2022-12-29T05:12:43;15.70;50.90
12769;DHT22;6448;48.916;8.990;2022-12-29T05:13:46;15.70;50.90
12769;DHT22;6448;48.916;8.990;2022-12-29T05:14:50;15.70;50.90
12769;DHT22;6448;48.916;8.990;2022-12-29T05:15:51;15.60;50.90
12769;DHT22;6448;48.916;8.990;2022-12-29T05:16:56;15.70;51.00
12769;DHT22;6448;48.916;8.990;2022-12-29T05:17:56;15.60;51.00
12769;DHT22;6448;48.916;8.990;2022-12-29T05:18:59;15.60;51.00
12769;DHT22;6448;48.916;8.990;2022-12-29T05:19:59;15.60;51.00
12769;DHT22;6448;48.916;8.990;2022-12-29T05:21:01;15.70;51.10
12769;DHT22;6448;48.916;8.990;2022-12-29T05:22:04;15.90;51.10
12769;DHT22;6448;48.916;8.990;2022-12-29T05:23:07;15.60;50.90
12769;DHT22;6448;48.916;8.990;2022-12-29T05:24:09;15.70;50.90
12769;DHT22;6448;48.916;8.990;2022-12-29T05:25:11;15.60;50.80
12769;DHT22;6448;48.916;8.990;2022-12-29T05:26:41;15.80;50.90
12769;DHT22;6448;48.916;8.990;2022-12-29T05:28:02;15.70;50.90
12769;DHT22;6448;48.916;8.990;2022-12-29T05:29:14;15.70;50.90
12769;DHT22;6448;48.916;8.990;2022-12-29T05:30:16;15.70;50.90
12769;DHT22;6448;48.916;8.990;2022-12-29T05:31:17;15.70;50.90
12769;DHT22;6448;48.916;8.990;2022-12-29T05:32:19;15.70;51.00
12769;DHT22;6448;48.916;8.990;2022-12-29T05:33:20;15.60;50.90
12769;DHT22;6448;48.916;8.990;2022-12-29T05:34:24;15.90;51.20
12769;DHT22;6448;48.916;8.990;2022-12-29T05:35:26;15.70;51.00
12769;DHT22;6448;48.916;8.990;2022-12-29T05:36:27;15.70;51.00
12769;DHT22;6448;48.916;8.990;2022-12-29T05:37:34;15.70;51.00
12769;DHT22;6448;48.916;8.990;2022-12-29T05:38:37;15.90;51.20
12769;DHT22;6448;48.916;8.990;2022-12-29T05:39:38;15.70;51.00
12769;DHT22;6448;48.916;8.990;2022-12-29T05:40:40;15.70;51.10
12769;DHT22;6448;48.916;8.990;2022-12-29T05:41:55;15.60;51.00
12769;DHT22;6448;48.916;8.990;2022-12-29T05:43:09;15.70;51.10
12769;DHT22;6448;48.916;8.990;2022-12-29T05:44:29;15.50;51.10
12769;DHT22;6448;48.916;8.990;2022-12-29T05:45:58;15.90;51.30
12769;DHT22;6448;48.916;8.990;2022-12-29T05:47:19;15.80;51.30
12769;DHT22;6448;48.916;8.990;2022-12-29T05:48:40;15.70;51.20
12769;DHT22;6448;48.916;8.990;2022-12-29T05:49:58;15.70;51.20
12769;DHT22;6448;48.916;8.990;2022-12-29T05:51:07;15.70;51.20
12769;DHT22;6448;48.916;8.990;2022-12-29T05:52:36;15.70;51.30
12769;DHT22;6448;48.916;8.990;2022-12-29T05:53:38;15.70;51.30
12769;DHT22;6448;48.916;8.990;2022-12-29T05:54:40;15.70;51.30
12769;DHT22;6448;48.916;8.990;2022-12-29T05:55:47;15.70;51.30
12769;DHT22;6448;48.916;8.990;2022-12-29T05:56:48;15.70;51.30
12769;DHT22;6448;48.916;8.990;2022-12-29T05:57:50;15.70;51.30
12769;DHT22;6448;48.916;8.990;2022-12-29T05:58:51;15.70;51.30
12769;DHT22;6448;48.916;8.990;2022-12-29T05:59:53;15.70;51.20
12769;DHT22;6448;48.916;8.990;2022-12-29T06:00:55;15.70;51.30
12769;DHT22;6448;48.916;8.990;2022-12-29T06:01:56;15.50;51.30
12769;DHT22;6448;48.916;8.990;2022-12-29T06:02:58;15.60;51.20
12769;DHT22;6448;48.916;8.990;2022-12-29T06:04:00;15.70;51.30
12769;DHT22;6448;48.916;8.990;2022-12-29T06:05:02;15.90;51.40
12769;DHT22;6448;48.916;8.990;2022-12-29T06:06:04;15.70;51.30
12769;DHT22;6448;48.916;8.990;2022-12-29T06:07:05;15.70;51.30
12769;DHT22;6448;48.916;8.990;2022-12-29T06:08:16;15.60;51.30
12769;DHT22;6448;48.916;8.990;2022-12-29T06:09:18;15.70;51.30
12769;DHT22;6448;48.916;8.990;2022-12-29T06:10:19;15.70;51.30
12769;DHT22;6448;48.916;8.990;2022-12-29T06:11:29;15.60;51.30
12769;DHT22;6448;48.916;8.990;2022-12-29T06:12:32;15.70;51.30
12769;DHT22;6448;48.916;8.990;2022-12-29T06:13:34;15.50;51.20
12769;DHT22;6448;48.916;8.990;2022-12-29T06:14:36;15.90;51.40
12769;DHT22;6448;48.916;8.990;2022-12-29T06:15:38;15.70;51.30
12769;DHT22;6448;48.916;8.990;2022-12-29T06:16:42;15.80;51.30
12769;DHT22;6448;48.916;8.990;2022-12-29T06:17:48;15.70;51.30
12769;DHT22;6448;48.916;8.990;2022-12-29T06:18:51;15.70;51.30
12769;DHT22;6448;48.916;8.990;2022-12-29T06:19:52;15.60;51.30
12769;DHT22;6448;48.916;8.990;2022-12-29T06:20:59;15.70;51.30
12769;DHT22;6448;48.916;8.990;2022-12-29T06:22:00;15.70;51.30
12769;DHT22;6448;48.916;8.990;2022-12-29T06:23:02;15.80;51.40
12769;DHT22;6448;48.916;8.990;2022-12-29T06:24:06;15.50;51.30
12769;DHT22;6448;48.916;8.990;2022-12-29T06:25:11;15.70;51.40
12769;DHT22;6448;48.916;8.990;2022-12-29T06:26:12;15.60;51.40
12769;DHT22;6448;48.916;8.990;2022-12-29T06:27:14;15.60;51.40
12769;DHT22;6448;48.916;8.990;2022-12-29T06:28:15;15.60;51.40
12769;DHT22;6448;48.916;8.990;2022-12-29T06:29:17;15.90;51.50
12769;DHT22;6448;48.916;8.990;2022-12-29T06:30:18;15.80;51.50
12769;DHT22;6448;48.916;8.990;2022-12-29T06:31:22;15.60;51.40
12769;DHT22;6448;48.916;8.990;2022-12-29T06:32:23;15.70;51.50
12769;DHT22;6448;48.916;8.990;2022-12-29T06:33:28;15.60;51.50
12769;DHT22;6448;48.916;8.990;2022-12-29T06:34:29;15.60;51.50
12769;DHT22;6448;48.916;8.990;2022-12-29T06:35:31;15.50;51.50
12769;DHT22;6448;48.916;8.990;2022-12-29T06:36:32;15.60;51.60
12769;DHT22;6448;48.916;8.990;2022-12-29T06:37:33;15.80;51.60
12769;DHT22;6448;48.916;8.990;2022-12-29T06:38:34;15.60;51.50
12769;DHT22;6448;48.916;8.990;2022-12-29T06:39:38;15.80;51.60
12769;DHT22;6448;48.916;8.990;2022-12-29T06:40:43;15.60;51.40
12769;DHT22;6448;48.916;8.990;2022-12-29T06:42:14;15.50;51.40
12769;DHT22;6448;48.916;8.990;2022-12-29T06:43:35;15.60;51.50
12769;DHT22;6448;48.916;8.990;2022-12-29T06:44:42;15.60;51.40
12769;DHT22;6448;48.916;8.990;2022-12-29T06:45:44;15.70;51.50
12769;DHT22;6448;48.916;8.990;2022-12-29T06:46:45;15.60;51.50
12769;DHT22;6448;48.916;8.990;2022-12-29T06:47:47;15.60;51.50
12769;DHT22;6448;48.916;8.990;2022-12-29T06:48:48;15.60;51.50
12769;DHT22;6448;48.916;8.990;2022-12-29T06:49:50;15.50;51.50
12769;DHT22;6448;48.916;8.990;2022-12-29T06:50:50;15.50;51.50
12769;DHT22;6448;48.916;8.990;2022-12-29T06:51:52;15.70;51.70
12769;DHT22;6448;48.916;8.990;2022-12-29T06:52:53;15.70;51.60
12769;DHT22;6448;48.916;8.990;2022-12-29T06:53:55;15.70;51.60
12769;DHT22;6448;48.916;8.990;2022-12-29T06:54:57;15.60;51.50
12769;DHT22;6448;48.916;8.990;2022-12-29T06:55:59;15.60;51.60
12769;DHT22;6448;48.916;8.990;2022-12-29T06:57:00;15.60;51.60
12769;DHT22;6448;48.916;8.990;2022-12-29T06:58:02;15.40;51.50
12769;DHT22;6448;48.916;8.990;2022-12-29T06:59:03;15.60;51.60
12769;DHT22;6448;48.916;8.990;2022-12-29T07:00:06;15.60;51.60
12769;DHT22;6448;48.916;8.990;2022-12-29T07:01:07;15.60;51.70
12769;DHT22;6448;48.916;8.990;2022-12-29T07:02:10;15.60;51.60
12769;DHT22;6448;48.916;8.990;2022-12-29T07:03:12;15.50;51.60
12769;DHT22;6448;48.916;8.990;2022-12-29T07:04:13;15.60;51.60
12769;DHT22;6448;48.916;8.990;2022-12-29T07:05:14;15.60;51.60
12769;DHT22;6448;48.916;8.990;2022-12-29T07:06:16;15.60;51.60
12769;DHT22;6448;48.916;8.990;2022-12-29T07:07:18;15.60;51.60